Klatovy, Czech Republic
Current Conditions -  °F | °C
As of 6:00 AM on Monday 22 Dec 2014 (Local Time) from LKLN Reporting Station
Overcast Overcast  
Wind Chill: 37°   Ceiling: 2300
Heat Index: 43°   Visibility: 6mi
Dew Point: 36°   Wind: 9mph
Humidity: 76%   Direction: 260°W
Pressure: 30.18"   Gusts: 22mph
Location:  49.4°N, 13.29°E
Report Text: LKLN 220400Z AUTO 26008G19KT 230V300 9999 OVC023 06/02 Q1022
Loading
Personal Weather Stations






























Interactive Weather Map New forecast layout! Learn more

10-Day Weather Forecast

Advertisements
Track Severe Weather on mobile